TJBQ/BQN METAR and TAF weather

Enter ICAO airport designator
Station Type Date Time Source
TJBQ METAR 2024/05/28 21:50 UTC NOAA

TJBQ 282150Z 10004KT 10SM BKN013 BKN049 26/24 A3001 RMK LTG DSNT NW


Station Type Date Time Source
TJBQ Decoded METAR 2024/05/28 21:50 UTC NOAA

Aquadilla, Rafael Hernandez Airport, PR, United States (TJBQ) 18-30N 067-08W 69M
May 28, 2024 - 05:50 PM EDT / 2024.05.28 2150 UTC
Wind: from the E (100 degrees) at 5 MPH (4 KT):0
Visibility: 10 mile(s):0
Sky conditions: mostly cloudy
Weather: Lightning observed
Temperature: 78 F (26 C)
Dew Point: 75 F (24 C)
Relative Humidity: 88%
Pressure (altimeter): 30.01 in. Hg (1016 hPa)
ob: TJBQ 282150Z 10004KT 10SM BKN013 BKN049 26/24 A3001 RMK LTG DSNT NW
cycle: 22

Station Type Date Time Source
TJBQ TAF 2024/05/28 18:36 UTC NOAA